createdAt,value
2019-03-22T00:00:23.864Z,48.00
2019-03-22T00:01:23.870Z,48.20
2019-03-22T00:02:23.842Z,47.70
2019-03-22T00:03:23.849Z,47.50
2019-03-22T00:04:23.831Z,49.00
2019-03-22T00:05:23.817Z,46.20
2019-03-22T00:06:23.806Z,47.80
2019-03-22T00:07:23.844Z,44.90
2019-03-22T00:08:23.785Z,49.40
2019-03-22T00:09:23.774Z,46.70
2019-03-22T00:10:23.763Z,43.30
2019-03-22T00:11:23.748Z,47.40
2019-03-22T00:12:23.741Z,46.20
2019-03-22T00:13:23.745Z,45.50
2019-03-22T00:14:23.719Z,49.20
2019-03-22T00:15:23.703Z,46.00
2019-03-22T00:16:23.698Z,45.50
2019-03-22T00:17:23.697Z,46.20
2019-03-22T00:18:23.699Z,46.30
2019-03-22T00:19:23.679Z,45.50
2019-03-22T00:20:23.650Z,43.40
2019-03-22T00:21:23.644Z,45.90
2019-03-22T00:22:23.634Z,46.30
2019-03-22T00:23:23.645Z,43.40
2019-03-22T00:24:23.630Z,45.40
2019-03-22T00:25:23.596Z,43.50
2019-03-22T00:26:23.592Z,45.10
2019-03-22T00:27:23.576Z,47.30
2019-03-22T00:28:23.579Z,43.40
2019-03-22T00:29:23.575Z,43.70
2019-03-22T00:30:23.552Z,45.70
2019-03-22T00:31:23.539Z,43.80
2019-03-22T00:32:23.530Z,44.40
2019-03-22T00:33:23.511Z,46.60
2019-03-22T00:34:23.522Z,45.10
2019-03-22T00:35:23.491Z,43.50
2019-03-22T00:36:23.478Z,44.30
2019-03-22T00:37:23.477Z,43.30
2019-03-22T00:38:23.458Z,43.20
2019-03-22T00:39:23.462Z,45.90
2019-03-22T00:40:23.442Z,46.70
2019-03-22T00:41:23.434Z,46.30
2019-03-22T00:42:23.431Z,44.30
2019-03-22T00:43:23.410Z,45.50
2019-03-22T00:44:23.394Z,46.20
2019-03-22T00:45:23.395Z,44.20
2019-03-22T00:46:23.388Z,44.80
2019-03-22T00:47:23.368Z,45.20
2019-03-22T00:48:24.925Z,44.50
2019-03-22T00:49:23.348Z,43.60
2019-03-22T00:50:23.337Z,42.20
2019-03-22T00:51:23.331Z,42.00
2019-03-22T00:52:23.309Z,42.80
2019-03-22T00:53:23.304Z,41.70
2019-03-22T00:54:23.292Z,44.00
2019-03-22T00:55:23.313Z,42.90
2019-03-22T00:56:23.272Z,41.50
2019-03-22T00:57:28.361Z,43.90
2019-03-22T00:58:24.249Z,43.80
2019-03-22T00:59:23.233Z,45.40
2019-03-22T01:00:23.230Z,41.00
2019-03-22T01:01:23.228Z,43.40
2019-03-22T01:02:23.210Z,44.60
2019-03-22T01:03:23.190Z,41.70
2019-03-22T01:04:23.186Z,42.00
2019-03-22T01:05:23.171Z,42.70
2019-03-22T01:06:23.178Z,40.30
2019-03-22T01:07:23.152Z,41.80
2019-03-22T01:08:23.138Z,41.60
2019-03-22T01:09:23.136Z,39.20
2019-03-22T01:10:23.123Z,39.00
2019-03-22T01:11:23.115Z,40.50
2019-03-22T01:12:23.141Z,42.80
2019-03-22T01:13:23.092Z,43.20
2019-03-22T01:14:31.201Z,44.40
2019-03-22T01:15:30.599Z,43.90
2019-03-22T01:16:31.256Z,41.70
2019-03-22T01:17:23.062Z,42.10
2019-03-22T01:18:30.605Z,41.50
2019-03-22T01:19:23.028Z,40.40
2019-03-22T01:20:23.012Z,40.70
2019-03-22T01:21:23.011Z,42.40
2019-03-22T01:22:23.028Z,40.40
2019-03-22T01:23:22.980Z,41.70
2019-03-22T01:24:22.968Z,39.60
2019-03-22T01:26:16.925Z,42.20
2019-03-22T01:27:16.908Z,43.00
2019-03-22T01:28:16.911Z,40.70
2019-03-22T01:29:16.946Z,40.50
2019-03-22T01:30:16.882Z,40.20
2019-03-22T01:31:16.898Z,39.70
2019-03-22T01:32:16.858Z,40.60
2019-03-22T01:33:16.853Z,41.10
2019-03-22T01:34:16.866Z,40.10
2019-03-22T01:35:16.823Z,44.80
2019-03-22T01:36:16.823Z,41.50
2019-03-22T01:37:16.816Z,45.20
2019-03-22T01:38:16.796Z,42.80
2019-03-22T01:39:16.782Z,42.30
2019-03-22T01:40:16.771Z,40.40
2019-03-22T01:41:16.760Z,38.20
2019-03-22T01:42:16.763Z,44.40
2019-03-22T01:43:16.739Z,43.90
2019-03-22T01:44:16.737Z,43.40
2019-03-22T01:45:16.726Z,42.20
2019-03-22T01:46:16.706Z,42.70
2019-03-22T01:47:16.697Z,45.00
2019-03-22T01:48:16.691Z,41.30
2019-03-22T01:49:16.717Z,40.20
2019-03-22T01:50:16.671Z,40.80
2019-03-22T01:51:16.659Z,41.30
2019-03-22T01:52:16.650Z,40.40
2019-03-22T01:53:16.637Z,39.40
2019-03-22T01:54:16.627Z,41.10
2019-03-22T01:55:16.623Z,41.00
2019-03-22T01:56:16.615Z,42.40
2019-03-22T01:57:16.594Z,46.10
2019-03-22T01:58:16.579Z,44.20
2019-03-22T01:59:16.572Z,41.20
2019-03-22T02:00:16.581Z,43.10
2019-03-22T02:01:16.549Z,45.80
2019-03-22T02:02:16.537Z,42.80
2019-03-22T02:03:16.526Z,43.10
2019-03-22T02:04:16.516Z,41.90
2019-03-22T02:05:16.511Z,43.30
2019-03-22T02:06:16.503Z,42.20
2019-03-22T02:07:16.483Z,44.80
2019-03-22T02:08:16.473Z,42.70
2019-03-22T02:09:16.468Z,42.30
2019-03-22T02:10:16.451Z,51.80
2019-03-22T02:11:16.450Z,48.50
2019-03-22T02:12:16.433Z,45.40
2019-03-22T02:13:16.465Z,42.20
2019-03-22T02:14:16.408Z,43.70
2019-03-22T02:15:16.402Z,45.60
2019-03-22T02:16:16.393Z,43.60
2019-03-22T02:17:16.382Z,47.30
2019-03-22T02:18:16.364Z,44.40
2019-03-22T02:19:16.368Z,44.20
2019-03-22T02:20:16.342Z,43.40
2019-03-22T02:21:16.334Z,46.60
2019-03-22T02:22:16.342Z,42.30
2019-03-22T02:23:16.314Z,43.40
2019-03-22T02:24:16.301Z,48.70
2019-03-22T02:25:16.334Z,44.00
2019-03-22T02:26:16.286Z,44.30
2019-03-22T02:27:16.275Z,43.70
2019-03-22T02:28:16.260Z,45.70
2019-03-22T02:29:16.247Z,49.40
2019-03-22T02:30:16.242Z,41.60
2019-03-22T02:31:16.245Z,44.40
2019-03-22T02:32:16.223Z,43.10
2019-03-22T02:33:16.211Z,44.50
2019-03-22T02:34:16.202Z,43.40
2019-03-22T02:35:28.252Z,44.10
2019-03-22T02:36:17.219Z,43.00
2019-03-22T02:37:16.175Z,42.30
2019-03-22T02:38:16.157Z,45.90
2019-03-22T02:39:16.178Z,46.90
2019-03-22T02:40:16.132Z,43.20
2019-03-22T02:41:16.132Z,47.30
2019-03-22T02:42:16.149Z,44.60
2019-03-22T02:43:16.122Z,46.70
2019-03-22T02:44:16.088Z,52.30
2019-03-22T02:45:16.076Z,45.10
2019-03-22T02:46:16.081Z,44.40
2019-03-22T02:47:16.063Z,45.10
2019-03-22T02:48:16.087Z,45.10
2019-03-22T02:49:16.040Z,45.30
2019-03-22T02:50:19.157Z,43.20
2019-03-22T02:51:16.019Z,46.90
2019-03-22T02:52:16.013Z,43.50
2019-03-22T02:53:15.995Z,42.70
2019-03-22T02:54:15.988Z,46.40
2019-03-22T02:55:16.015Z,46.00
2019-03-22T02:56:16.099Z,45.40
2019-03-22T02:57:15.952Z,45.20
2019-03-22T02:58:21.005Z,46.40
2019-03-22T02:59:16.971Z,43.90
2019-03-22T03:00:15.921Z,45.50
2019-03-22T03:01:15.909Z,47.00
2019-03-22T03:02:15.896Z,49.50
2019-03-22T03:03:15.893Z,47.20
2019-03-22T03:04:15.873Z,43.80
2019-03-22T03:05:15.940Z,48.80
2019-03-22T03:06:15.853Z,47.90
2019-03-22T03:07:15.848Z,46.10
2019-03-22T03:08:15.832Z,47.00
2019-03-22T03:09:15.831Z,45.80
2019-03-22T03:10:16.020Z,43.80
2019-03-22T03:11:15.815Z,46.60
2019-03-22T03:12:15.789Z,47.10
2019-03-22T03:13:15.791Z,46.20
2019-03-22T03:14:15.769Z,44.50
2019-03-22T03:15:15.802Z,45.10
2019-03-22T03:16:15.761Z,44.00
2019-03-22T03:17:15.739Z,47.60
2019-03-22T03:18:15.723Z,44.80
2019-03-22T03:19:15.712Z,44.10
2019-03-22T03:20:15.702Z,45.00
2019-03-22T03:21:15.714Z,45.20
2019-03-22T03:22:15.688Z,46.50
2019-03-22T03:23:15.671Z,50.30
2019-03-22T03:24:15.661Z,45.10
2019-03-22T03:25:15.649Z,44.60
2019-03-22T03:26:15.646Z,42.80
2019-03-22T03:27:15.640Z,45.80
2019-03-22T03:28:15.617Z,43.20
2019-03-22T03:29:15.613Z,45.30
2019-03-22T03:30:15.610Z,47.40
2019-03-22T03:31:15.625Z,44.30
2019-03-22T03:32:15.582Z,46.90
2019-03-22T03:33:15.585Z,46.60
2019-03-22T03:34:15.571Z,44.70
2019-03-22T03:35:15.550Z,45.40
2019-03-22T03:36:15.537Z,46.30
2019-03-22T03:37:15.527Z,47.40
2019-03-22T03:38:15.518Z,46.50
2019-03-22T03:39:15.513Z,43.90
2019-03-22T03:40:15.489Z,46.10
2019-03-22T03:41:15.485Z,47.00
2019-03-22T03:42:15.503Z,45.50
2019-03-22T03:43:15.464Z,48.40
2019-03-22T03:44:15.458Z,43.10
2019-03-22T03:45:15.437Z,42.60
2019-03-22T03:46:15.431Z,44.20
2019-03-22T03:47:15.423Z,47.40
2019-03-22T03:48:15.416Z,45.40
2019-03-22T03:49:15.409Z,45.00
2019-03-22T03:50:15.391Z,47.00
2019-03-22T03:51:15.382Z,44.70
2019-03-22T03:52:15.365Z,47.30
2019-03-22T03:53:15.368Z,45.40
2019-03-22T03:54:15.347Z,50.00
2019-03-22T03:55:15.345Z,47.20
2019-03-22T03:56:15.318Z,47.60
2019-03-22T03:57:15.329Z,47.20
2019-03-22T03:58:15.306Z,47.30
2019-03-22T03:59:15.296Z,46.60
2019-03-22T04:00:15.282Z,47.70
2019-03-22T04:01:15.268Z,48.90
2019-03-22T04:02:15.274Z,48.60
2019-03-22T04:03:15.271Z,49.10
2019-03-22T04:04:15.238Z,51.70
2019-03-22T04:05:15.226Z,50.70
2019-03-22T04:06:15.221Z,50.60
2019-03-22T04:07:15.216Z,51.30
2019-03-22T04:08:15.202Z,51.70
2019-03-22T04:09:15.190Z,49.30
2019-03-22T04:10:15.170Z,49.00
2019-03-22T04:11:15.174Z,51.60
2019-03-22T04:12:15.193Z,54.10
2019-03-22T04:13:15.162Z,52.20
2019-03-22T04:14:15.155Z,54.90
2019-03-22T04:15:15.132Z,50.20
2019-03-22T04:16:15.110Z,49.80
2019-03-22T04:17:15.098Z,49.60
2019-03-22T04:18:15.103Z,52.30
2019-03-22T04:19:15.085Z,52.20
2019-03-22T04:20:15.064Z,52.40
2019-03-22T04:21:15.067Z,52.90
2019-03-22T04:22:15.045Z,56.60
2019-03-22T04:23:15.038Z,57.00
2019-03-22T04:24:15.023Z,56.90
2019-03-22T04:25:15.044Z,60.50
2019-03-22T04:26:15.004Z,62.00
2019-03-22T04:27:15.018Z,63.50
2019-03-22T04:28:14.987Z,63.40
2019-03-22T04:29:14.974Z,67.00
2019-03-22T04:30:14.984Z,63.80
2019-03-22T04:31:14.967Z,64.40
2019-03-22T04:32:14.943Z,62.20
2019-03-22T04:33:14.932Z,63.20
2019-03-22T04:34:14.916Z,58.20
2019-03-22T04:35:14.912Z,61.80
2019-03-22T04:36:14.915Z,63.10
2019-03-22T04:37:14.893Z,58.20
2019-03-22T04:38:14.879Z,61.00
2019-03-22T04:39:14.870Z,57.00
2019-03-22T04:40:14.853Z,56.90
2019-03-22T04:41:14.858Z,57.20
2019-03-22T04:42:14.832Z,57.20
2019-03-22T04:43:14.827Z,58.60
2019-03-22T04:44:14.819Z,59.60
2019-03-22T04:45:14.803Z,62.20
2019-03-22T04:46:14.806Z,58.60
2019-03-22T04:47:14.782Z,61.30
2019-03-22T04:48:14.789Z,61.90
2019-03-22T04:49:14.767Z,61.40
2019-03-22T04:50:14.810Z,58.30
2019-03-22T04:51:14.737Z,58.70
2019-03-22T04:52:14.744Z,58.00
2019-03-22T04:53:14.724Z,61.10
2019-03-22T04:54:14.715Z,55.90
2019-03-22T04:55:14.697Z,60.00
2019-03-22T04:56:14.690Z,63.00
2019-03-22T04:57:14.682Z,61.30
2019-03-22T04:58:14.668Z,58.90
2019-03-22T04:59:19.328Z,60.60
2019-03-22T05:00:15.642Z,58.10
2019-03-22T05:01:14.636Z,61.60
2019-03-22T05:02:14.656Z,58.70
2019-03-22T05:03:14.615Z,58.80
2019-03-22T05:04:14.599Z,58.90
2019-03-22T05:05:14.594Z,59.10
2019-03-22T05:06:14.578Z,61.10
2019-03-22T05:07:14.575Z,62.40
2019-03-22T05:08:14.570Z,58.80
2019-03-22T05:09:14.547Z,59.00
2019-03-22T05:10:14.536Z,57.70
2019-03-22T05:11:14.531Z,55.20
2019-03-22T05:12:14.522Z,62.40
2019-03-22T05:13:14.511Z,60.10
2019-03-22T05:14:14.504Z,61.20
2019-03-22T05:15:14.484Z,60.80
2019-03-22T05:16:14.478Z,60.70
2019-03-22T05:17:14.470Z,63.50
2019-03-22T05:18:14.468Z,60.10
2019-03-22T05:19:14.443Z,60.70
2019-03-22T05:20:14.432Z,59.40
2019-03-22T05:21:14.421Z,60.50
2019-03-22T05:22:14.418Z,59.10
2019-03-22T05:23:14.398Z,60.00
2019-03-22T05:24:14.405Z,61.30
2019-03-22T05:25:14.384Z,61.80
2019-03-22T05:26:14.371Z,62.20
2019-03-22T05:27:14.371Z,66.70
2019-03-22T05:28:14.346Z,64.20
2019-03-22T05:29:14.357Z,65.90
2019-03-22T05:30:14.323Z,65.90
2019-03-22T05:31:14.319Z,65.50
2019-03-22T05:32:14.309Z,62.10
2019-03-22T05:33:14.302Z,61.10
2019-03-22T05:34:14.281Z,65.10
2019-03-22T05:35:14.288Z,64.60
2019-03-22T05:36:14.267Z,63.30
2019-03-22T05:37:14.249Z,65.20
2019-03-22T05:38:14.252Z,62.40
2019-03-22T05:39:14.238Z,65.00
2019-03-22T05:40:14.248Z,63.30
2019-03-22T05:41:14.213Z,59.70
2019-03-22T05:42:14.204Z,67.20
2019-03-22T05:43:14.185Z,63.70
2019-03-22T05:44:14.176Z,60.90
2019-03-22T05:45:14.172Z,60.50
2019-03-22T05:46:14.183Z,62.70
2019-03-22T05:47:14.148Z,63.70
2019-03-22T05:48:14.137Z,62.30
2019-03-22T05:49:14.121Z,64.60
2019-03-22T05:50:14.114Z,62.60
2019-03-22T05:51:14.107Z,63.90
2019-03-22T05:52:14.109Z,62.00
2019-03-22T05:53:14.086Z,58.30
2019-03-22T05:54:14.073Z,61.60
2019-03-22T05:55:14.057Z,63.00
2019-03-22T05:56:14.111Z,62.30
2019-03-22T05:57:14.190Z,61.60
2019-03-22T05:58:14.057Z,61.00
2019-03-22T05:59:14.022Z,58.40
2019-03-22T06:00:14.019Z,63.40
2019-03-22T06:01:14.027Z,60.90
2019-03-22T06:02:13.989Z,61.50
2019-03-22T06:03:13.978Z,62.50
2019-03-22T06:04:13.971Z,63.80
2019-03-22T06:05:13.956Z,64.30
2019-03-22T06:06:13.938Z,62.90
2019-03-22T06:07:13.939Z,61.20
2019-03-22T06:08:13.922Z,60.20
2019-03-22T06:09:13.912Z,58.00
2019-03-22T06:10:13.959Z,59.00
2019-03-22T06:11:13.884Z,59.00
2019-03-22T06:12:13.895Z,62.90
2019-03-22T06:13:13.864Z,62.70
2019-03-22T06:14:13.858Z,61.30
2019-03-22T06:15:13.846Z,58.60
2019-03-22T06:16:13.834Z,63.10
2019-03-22T06:17:13.853Z,64.10
2019-03-22T06:18:13.808Z,63.00
2019-03-22T06:19:13.802Z,61.40
2019-03-22T06:20:13.791Z,62.00
2019-03-22T06:21:13.776Z,61.80
2019-03-22T06:22:13.772Z,62.60
2019-03-22T06:23:13.773Z,63.00
2019-03-22T06:24:13.745Z,62.70
2019-03-22T06:25:13.744Z,63.20
2019-03-22T06:26:13.730Z,63.30
2019-03-22T06:27:13.723Z,65.30
2019-03-22T06:28:13.723Z,69.70
2019-03-22T06:29:13.705Z,59.80
2019-03-22T06:30:13.680Z,65.10
2019-03-22T06:31:13.675Z,65.80
2019-03-22T06:32:13.657Z,63.20
2019-03-22T06:33:13.647Z,61.20
2019-03-22T06:34:13.645Z,60.90
2019-03-22T06:35:13.630Z,62.60
2019-03-22T06:36:13.619Z,63.90
2019-03-22T06:37:13.611Z,65.50
2019-03-22T06:38:13.601Z,65.70
2019-03-22T06:39:13.582Z,65.80
2019-03-22T06:40:13.580Z,65.30
2019-03-22T06:41:13.571Z,66.30
2019-03-22T06:42:13.550Z,61.30
2019-03-22T06:43:13.542Z,62.20
2019-03-22T06:44:13.542Z,65.90
2019-03-22T06:45:13.523Z,69.70
2019-03-22T06:46:13.511Z,61.30
2019-03-22T06:47:13.503Z,66.20
2019-03-22T06:48:13.490Z,65.40
2019-03-22T06:49:13.531Z,66.70
2019-03-22T06:50:13.475Z,67.10
2019-03-22T06:51:13.457Z,62.80
2019-03-22T06:52:13.501Z,62.80
2019-03-22T06:53:13.437Z,63.90
2019-03-22T06:54:13.429Z,66.30
2019-03-22T06:55:13.466Z,65.50
2019-03-22T06:56:13.415Z,61.70
2019-03-22T06:57:13.391Z,65.40
2019-03-22T06:58:13.382Z,65.70
2019-03-22T06:59:13.373Z,68.80
2019-03-22T07:00:13.363Z,69.10
2019-03-22T07:01:13.355Z,66.60
2019-03-22T07:02:13.338Z,67.10
2019-03-22T07:03:13.327Z,65.10
2019-03-22T07:04:13.317Z,68.80
2019-03-22T07:05:13.712Z,66.40
2019-03-22T07:06:13.309Z,66.70
2019-03-22T07:07:13.283Z,70.50
2019-03-22T07:08:13.293Z,63.90
2019-03-22T07:09:13.264Z,65.00
2019-03-22T07:10:13.247Z,64.10
2019-03-22T07:11:13.241Z,64.00
2019-03-22T07:12:13.234Z,65.20
2019-03-22T07:13:13.223Z,66.50
2019-03-22T07:14:13.213Z,61.20
2019-03-22T07:15:13.195Z,65.00
2019-03-22T07:16:13.183Z,67.30
2019-03-22T07:17:13.182Z,63.40
2019-03-22T07:18:13.159Z,66.50
2019-03-22T07:19:13.155Z,63.90
2019-03-22T07:20:13.157Z,66.60
2019-03-22T07:21:13.130Z,60.30
2019-03-22T07:22:13.151Z,65.60
2019-03-22T07:23:13.105Z,62.80
2019-03-22T07:24:13.100Z,66.60
2019-03-22T07:25:13.090Z,63.60
2019-03-22T07:27:08.357Z,55.80
2019-03-22T07:28:08.363Z,59.00
2019-03-22T07:29:08.329Z,60.70
2019-03-22T07:30:17.905Z,61.40
2019-03-22T07:31:09.301Z,61.20
2019-03-22T07:32:08.286Z,66.30
2019-03-22T07:33:08.293Z,59.10
2019-03-22T07:34:08.263Z,60.20
2019-03-22T07:35:08.265Z,60.20
2019-03-22T07:36:08.245Z,59.60
2019-03-22T07:37:08.231Z,57.00
2019-03-22T07:38:08.236Z,56.40
2019-03-22T07:39:08.254Z,58.70
2019-03-22T07:40:08.207Z,57.50
2019-03-22T07:41:08.195Z,61.10
2019-03-22T07:42:08.181Z,58.40
2019-03-22T07:43:08.167Z,54.00
2019-03-22T07:44:08.152Z,53.90
2019-03-22T07:45:08.158Z,51.20
2019-03-22T07:46:08.134Z,51.00
2019-03-22T07:47:08.126Z,53.50
2019-03-22T07:48:08.112Z,54.90
2019-03-22T07:49:08.100Z,52.20
2019-03-22T07:50:08.104Z,55.70
2019-03-22T07:51:08.081Z,54.50
2019-03-22T07:52:08.079Z,53.10
2019-03-22T07:53:08.126Z,54.20
2019-03-22T07:54:08.065Z,51.50
2019-03-22T07:55:08.050Z,52.60
2019-03-22T07:56:08.021Z,55.60
2019-03-22T07:57:08.021Z,53.50
2019-03-22T07:58:08.009Z,55.50
2019-03-22T07:59:09.839Z,53.90
2019-03-22T08:00:07.997Z,53.00
2019-03-22T08:01:07.968Z,53.80
2019-03-22T08:02:07.961Z,51.80
2019-03-22T08:03:07.959Z,50.00
2019-03-22T08:04:07.937Z,53.60
2019-03-22T08:05:07.944Z,53.20
2019-03-22T08:06:07.928Z,52.50
2019-03-22T08:07:07.921Z,55.80
2019-03-22T08:08:07.900Z,57.40
2019-03-22T08:09:07.882Z,55.00
2019-03-22T08:10:07.879Z,54.00
2019-03-22T08:11:07.894Z,55.60
2019-03-22T08:12:16.100Z,56.50
2019-03-22T08:13:07.847Z,57.80
2019-03-22T08:14:07.848Z,57.90
2019-03-22T08:15:08.573Z,55.00
2019-03-22T08:16:07.826Z,58.70
2019-03-22T08:17:07.833Z,53.40
2019-03-22T08:18:07.786Z,55.00
2019-03-22T08:19:07.772Z,55.40
2019-03-22T08:20:07.767Z,56.80
2019-03-22T08:21:07.760Z,54.00
2019-03-22T08:22:07.796Z,52.60
2019-03-22T08:23:07.753Z,55.00
2019-03-22T08:24:07.724Z,52.70
2019-03-22T08:25:07.707Z,56.20
2019-03-22T08:26:07.706Z,55.20
2019-03-22T08:27:07.706Z,53.80
2019-03-22T08:28:07.691Z,56.70
2019-03-22T08:29:07.660Z,56.40
2019-03-22T08:30:07.665Z,55.60
2019-03-22T08:31:07.663Z,60.50
2019-03-22T08:32:07.651Z,58.20
2019-03-22T08:33:07.627Z,54.80
2019-03-22T08:34:07.608Z,56.70
2019-03-22T08:35:07.639Z,53.00
2019-03-22T08:36:07.589Z,56.10
2019-03-22T08:37:07.617Z,52.50
2019-03-22T08:38:07.584Z,54.20
2019-03-22T08:39:07.602Z,55.50
2019-03-22T08:40:07.541Z,56.30
2019-03-22T08:41:07.564Z,54.30
2019-03-22T08:42:07.565Z,55.40
2019-03-22T08:43:07.582Z,56.90
2019-03-22T08:44:07.498Z,53.40
2019-03-22T08:45:07.532Z,57.70
2019-03-22T08:46:07.477Z,56.90
2019-03-22T08:47:07.465Z,55.90
2019-03-22T08:48:07.498Z,55.00
2019-03-22T08:49:09.508Z,54.50
2019-03-22T08:50:07.434Z,58.50
2019-03-22T08:51:07.422Z,58.50
2019-03-22T08:52:07.425Z,53.90
2019-03-22T08:53:07.407Z,56.60
2019-03-22T08:54:07.455Z,54.80
2019-03-22T08:55:07.377Z,55.80
2019-03-22T08:56:15.670Z,56.50
2019-03-22T08:57:07.384Z,57.70
2019-03-22T08:58:18.774Z,57.50
2019-03-22T08:59:14.981Z,55.50
2019-03-22T09:00:07.364Z,60.40
2019-03-22T09:01:07.313Z,56.00
2019-03-22T09:02:08.448Z,58.90
2019-03-22T09:03:07.298Z,58.40
2019-03-22T09:04:07.332Z,55.20
2019-03-22T09:05:07.322Z,51.40
2019-03-22T09:06:15.239Z,53.30
2019-03-22T09:07:07.265Z,54.70
2019-03-22T09:08:07.247Z,53.40
2019-03-22T09:09:07.295Z,51.30
2019-03-22T09:10:07.228Z,52.00
2019-03-22T09:11:07.209Z,51.10
2019-03-22T09:12:07.199Z,50.50
2019-03-22T09:13:07.188Z,48.10
2019-03-22T09:14:07.183Z,49.90
2019-03-22T09:15:07.196Z,49.90
2019-03-22T09:16:07.201Z,51.50
2019-03-22T09:17:07.139Z,50.90
2019-03-22T09:18:07.136Z,51.60
2019-03-22T09:19:07.120Z,49.40
2019-03-22T09:20:07.112Z,53.10
2019-03-22T09:21:07.157Z,51.20
2019-03-22T09:22:07.133Z,49.90
2019-03-22T09:23:07.130Z,47.30
2019-03-22T09:24:07.068Z,47.90
2019-03-22T09:25:07.099Z,46.60
2019-03-22T09:26:07.046Z,49.10
2019-03-22T09:27:07.039Z,47.40
2019-03-22T09:28:07.023Z,48.20
2019-03-22T09:29:07.014Z,47.70
2019-03-22T09:30:07.005Z,47.60
2019-03-22T09:31:10.761Z,49.00
2019-03-22T09:32:07.033Z,46.50
2019-03-22T09:33:07.036Z,48.80
2019-03-22T09:34:06.979Z,49.30
2019-03-22T09:35:06.965Z,50.00
2019-03-22T09:36:06.991Z,49.10
2019-03-22T09:37:08.952Z,51.00
2019-03-22T09:38:12.903Z,47.80
2019-03-22T09:39:07.901Z,48.50
2019-03-22T09:40:08.409Z,47.70
2019-03-22T09:41:06.879Z,49.30
2019-03-22T09:42:06.903Z,46.70
2019-03-22T09:43:06.876Z,47.10
2019-03-22T09:44:06.890Z,46.60
2019-03-22T09:45:06.882Z,46.60
2019-03-22T09:46:06.917Z,47.70
2019-03-22T09:47:06.865Z,46.10
2019-03-22T09:48:06.831Z,42.50
2019-03-22T09:49:06.797Z,47.50
2019-03-22T09:50:06.841Z,49.50
2019-03-22T09:51:06.784Z,49.40
2019-03-22T09:52:06.763Z,46.60
2019-03-22T09:53:06.785Z,45.40
2019-03-22T09:54:06.791Z,47.50
2019-03-22T09:55:13.481Z,48.40
2019-03-22T09:56:07.759Z,43.70
2019-03-22T09:57:06.719Z,45.60
2019-03-22T09:58:06.703Z,50.20
2019-03-22T09:59:06.688Z,43.40
2019-03-22T10:00:06.704Z,46.60
2019-03-22T10:01:06.766Z,48.10
2019-03-22T10:02:06.700Z,45.30
2019-03-22T10:03:06.637Z,47.10
2019-03-22T10:04:06.632Z,44.10
2019-03-22T10:05:06.619Z,46.50
2019-03-22T10:06:06.618Z,46.40
2019-03-22T10:07:06.618Z,47.80
2019-03-22T10:08:06.613Z,49.00
2019-03-22T10:09:06.662Z,48.20
2019-03-22T10:10:06.573Z,51.20
2019-03-22T10:11:06.600Z,47.80
2019-03-22T10:12:06.543Z,48.10
2019-03-22T10:13:06.546Z,46.50
2019-03-22T10:14:06.597Z,46.20
2019-03-22T10:15:06.529Z,47.80
2019-03-22T10:16:06.500Z,51.20
2019-03-22T10:17:06.493Z,47.00
2019-03-22T10:18:06.474Z,45.40
2019-03-22T10:19:06.502Z,49.50
2019-03-22T10:20:06.458Z,50.40
2019-03-22T10:21:06.439Z,49.70
2019-03-22T10:22:06.433Z,49.60
2019-03-22T10:23:06.426Z,49.80
2019-03-22T10:24:06.416Z,48.00
2019-03-22T10:25:06.409Z,47.10
2019-03-22T10:26:06.385Z,49.30
2019-03-22T10:27:06.379Z,46.80
2019-03-22T10:28:06.370Z,44.90
2019-03-22T10:29:07.149Z,46.40
2019-03-22T10:30:06.373Z,45.30
2019-03-22T10:31:06.331Z,45.10
2019-03-22T10:32:06.343Z,45.90
2019-03-22T10:33:06.376Z,45.90
2019-03-22T10:34:06.301Z,46.10
2019-03-22T10:35:06.308Z,48.50
2019-03-22T10:36:06.303Z,49.30
2019-03-22T10:37:06.275Z,49.10
2019-03-22T10:38:15.336Z,46.30
2019-03-22T10:39:07.242Z,48.10
2019-03-22T10:40:06.233Z,48.30
2019-03-22T10:41:06.237Z,47.00
2019-03-22T10:42:06.221Z,48.10
2019-03-22T10:43:06.209Z,47.70
2019-03-22T10:44:06.358Z,47.60
2019-03-22T10:45:06.176Z,46.60
2019-03-22T10:46:07.920Z,47.00
2019-03-22T10:47:06.168Z,49.80
2019-03-22T10:48:06.174Z,47.80
2019-03-22T10:49:06.131Z,48.10
2019-03-22T10:50:06.181Z,48.80
2019-03-22T10:51:06.122Z,49.10
2019-03-22T10:52:06.103Z,47.30
2019-03-22T10:53:06.116Z,46.00
2019-03-22T10:54:06.078Z,46.10
2019-03-22T10:55:23.122Z,46.80
2019-03-22T10:56:07.110Z,51.30
2019-03-22T10:57:06.051Z,49.30
2019-03-22T10:58:19.789Z,46.50
2019-03-22T10:59:07.092Z,47.40
2019-03-22T11:00:06.012Z,48.50
2019-03-22T11:01:08.245Z,48.60
2019-03-22T11:02:07.824Z,45.90
2019-03-22T11:03:06.002Z,47.70
2019-03-22T11:05:05.963Z,47.00
2019-03-22T11:06:05.949Z,47.60
2019-03-22T11:07:05.941Z,48.70
2019-03-22T11:08:05.940Z,48.70
2019-03-22T11:09:05.921Z,50.40
2019-03-22T11:10:05.908Z,48.20
2019-03-22T11:11:05.897Z,50.70
2019-03-22T11:12:12.165Z,47.80
2019-03-22T11:13:06.881Z,46.30
2019-03-22T11:14:05.868Z,45.60
2019-03-22T11:15:05.856Z,48.80
2019-03-22T11:16:05.842Z,53.50
2019-03-22T11:17:05.845Z,49.70
2019-03-22T11:18:05.823Z,50.10
2019-03-22T11:19:05.809Z,48.70
2019-03-22T11:20:05.793Z,50.60
2019-03-22T11:21:05.854Z,50.20
2019-03-22T11:22:05.771Z,48.00
2019-03-22T11:23:05.771Z,49.20
2019-03-22T11:24:05.766Z,52.60
2019-03-22T11:25:05.745Z,53.40
2019-03-22T11:26:05.735Z,52.10
2019-03-22T11:27:05.722Z,51.10
2019-03-22T11:28:05.706Z,50.10
2019-03-22T11:29:05.723Z,52.50
2019-03-22T11:30:05.692Z,54.10
2019-03-22T11:31:05.672Z,55.30
2019-03-22T11:32:12.624Z,51.60
2019-03-22T11:33:06.652Z,54.80
2019-03-22T11:34:05.677Z,56.00
2019-03-22T11:35:05.633Z,54.50
2019-03-22T11:36:05.633Z,53.20
2019-03-22T11:37:07.671Z,54.30
2019-03-22T11:38:05.631Z,56.60
2019-03-22T11:39:14.952Z,52.10
2019-03-22T11:40:06.591Z,52.40
2019-03-22T11:41:05.565Z,55.20
2019-03-22T11:42:05.558Z,54.50
2019-03-22T11:43:08.956Z,51.60
2019-03-22T11:44:05.530Z,50.10
2019-03-22T11:45:05.530Z,52.10
2019-03-22T11:46:05.529Z,53.40
2019-03-22T11:47:05.505Z,52.80
2019-03-22T11:48:05.487Z,52.20
2019-03-22T11:49:05.478Z,52.50
2019-03-22T11:50:05.465Z,51.40
2019-03-22T11:51:05.464Z,47.60
2019-03-22T11:52:05.449Z,52.10
2019-03-22T11:53:05.439Z,50.60
2019-03-22T11:54:05.427Z,52.20
2019-03-22T11:55:05.416Z,50.50
2019-03-22T11:56:05.408Z,48.90
2019-03-22T11:57:05.425Z,53.20
2019-03-22T11:58:05.379Z,45.80
2019-03-22T11:59:05.378Z,49.50
2019-03-22T12:00:05.372Z,48.40
2019-03-22T12:01:05.351Z,49.70
2019-03-22T12:02:05.341Z,48.20
2019-03-22T12:03:05.368Z,49.40
2019-03-22T12:04:05.314Z,49.80
2019-03-22T12:05:05.309Z,45.70
2019-03-22T12:06:05.301Z,45.70
2019-03-22T12:07:05.281Z,42.80
2019-03-22T12:08:05.276Z,44.80
2019-03-22T12:09:05.278Z,41.70
2019-03-22T12:10:05.254Z,38.90
2019-03-22T12:11:05.241Z,39.00
2019-03-22T12:12:05.237Z,39.00
2019-03-22T12:13:05.227Z,40.10
2019-03-22T12:14:05.206Z,42.60
2019-03-22T12:15:05.208Z,41.20
2019-03-22T12:16:05.189Z,39.60
2019-03-22T12:17:05.183Z,39.90
2019-03-22T12:18:05.178Z,38.60
2019-03-22T12:19:05.157Z,41.90
2019-03-22T12:20:05.141Z,42.10
2019-03-22T12:21:05.135Z,40.60
2019-03-22T12:22:05.118Z,40.00
2019-03-22T12:23:05.122Z,37.70
2019-03-22T12:24:05.151Z,38.60
2019-03-22T12:25:05.091Z,41.40
2019-03-22T12:26:06.500Z,43.30
2019-03-22T12:27:05.069Z,43.00
2019-03-22T12:28:05.053Z,47.00
2019-03-22T12:29:05.044Z,46.20
2019-03-22T12:30:05.079Z,48.90
2019-03-22T12:31:05.060Z,46.30
2019-03-22T12:32:05.010Z,45.90
2019-03-22T12:33:04.999Z,45.20
2019-03-22T12:34:04.994Z,48.20
2019-03-22T12:35:04.983Z,45.90
2019-03-22T12:36:04.975Z,44.50
2019-03-22T12:37:04.960Z,44.60
2019-03-22T12:38:04.959Z,46.20
2019-03-22T12:39:04.952Z,47.90
2019-03-22T12:40:04.944Z,45.40
2019-03-22T12:41:04.914Z,50.10
2019-03-22T12:42:04.909Z,46.30
2019-03-22T12:43:04.900Z,46.00
2019-03-22T12:44:04.888Z,49.90
2019-03-22T12:45:04.868Z,46.10
2019-03-22T12:46:04.859Z,46.00
2019-03-22T12:47:04.854Z,48.90
2019-03-22T12:48:04.839Z,48.30
2019-03-22T12:49:04.834Z,46.90
2019-03-22T12:50:04.814Z,45.90
2019-03-22T12:51:04.816Z,49.20
2019-03-22T12:52:04.789Z,46.10
2019-03-22T12:53:04.800Z,46.90
2019-03-22T12:54:04.774Z,48.80
2019-03-22T12:55:04.764Z,45.00